Willow Street, PA (17584)

4:01 PM EDT on August 27, 2015 (GMT -0400)
Willow Street | | Change Station
CLOSE
Current Station
Personal Weather Station
Location: Willow Street, PA
Elevation: 476 ft
Nearby Weather Stations

Elev 476 ft 39.97 °N, 76.27 °W | Updated 5 minutes ago

Mostly Cloudy
Mostly Cloudy
73.7 °F
Feels Like 77 °F
N
1.0
Wind Variable Wind from West
Gusts 2.0 mph

Today
High -- | Low -- °F
--% Chance of Precip.
Yesterday
High -- | Low -- °F
Precip. -- in
6:27 AM 7:44 PM
Waxing Gibbous, 94% visible
Pressure 30.09 in
Visibility 10.0 miles
Clouds Scattered Clouds 4500 ft
Overcast 6500 ft
Heat Index 77 °F
Dew Point 58 °F
Humidity 57%
Rainfall 0.00 in
Snow Depth Not available.
UV 2 out of 12
Pollen 9.80 out of 12
Air Quality Not available.
Flu Activity Not available.
METAR KLNS 271953Z 35012KT 10SM SCT045 OVC065 24/13 A3009 RMK AO2 SLP188 T02390128
Pressure 30.09 in
Visibility 10.0 miles
Clouds Scattered Clouds 4500 ft
Overcast 6500 ft
Heat Index 77 °F
Dew Point 58 °F
Humidity 57%
Rainfall 0.00 in
Snow Depth Not available.
UV 2 out of 12
Pollen 9.80 out of 12
Air Quality Not available.
Flu Activity Not available.
METAR KLNS 271953Z 35012KT 10SM SCT045 OVC065 24/13 A3009 RMK AO2 SLP188 T02390128

10-Day Weather Forecast

×

Almanac

Astronomy

Aug. 27, 2015 Rise Set
Actual Time
Civil Twilight
Nautical Twilight
Astronomical Twilight
Moon
Length of Visible Light
Length of Day
Tomorrow will be .
, % of the Moon is Illuminated

Today's Extremes

State Highs State Lows

Community

WunderPhotos

Upload Photos

1,850,200 photos uploaded!

WunderBlogs® & News

Nearby

Air Quality

  Air Quality AQ Index Pollutant
Not available.

Snow Depth

Station Depth Elevation

Earthquake Activity

City Distance Mag. Time & Date
Minimum magnitude displayed is 2.5.

Coastal Water Temperatures

Place Temperature

Stations

Nearby Weather Stations

Station Location Temp. Windchill Dew Point Humidity Wind Precip. Elev Updated Type